Time;durP1;ratioP1;P1;durP2;ratioP2;P2;SDS_P1;SDS_P2;PMS_P1;PMS_P2;Temp;Humidity;BMP_temperature;BMP_pressure;BME280_temperature;BME280_humidity;BME280_pressure;Samples;Min_cycle;Max_cycle;Signal;HPM_P1;HPM_P2
2023/10/28 00:00:21;;;;;;;;;6.67;3.00;;;;;13.08;75.58;99274.53;5037247;28;45477;-79
2023/10/28 00:02:47;;;;;;;;;3.00;1.00;;;;;13.08;76.10;99270.13;5030690;28;45574;-79
2023/10/28 00:05:12;;;;;;;;;4.33;2.00;;;;;13.12;75.40;99271.75;5017355;28;45370;-79
2023/10/28 00:07:38;;;;;;;;;5.33;2.00;;;;;13.09;75.57;99281.50;5036542;28;45520;-79
2023/10/28 00:10:07;;;;;;;;;6.33;2.33;;;;;13.09;75.63;99271.84;5038075;28;45911;-78
2023/10/28 00:12:33;;;;;;;;;6.00;2.67;;;;;13.12;75.34;99256.00;5037574;28;45321;-79
2023/10/28 00:14:59;;;;;;;;;7.00;4.00;;;;;12.65;75.60;99186.56;5039055;28;45330;-78
2023/10/28 00:17:25;;;;;;;;;5.00;3.00;;;;;12.64;75.49;99190.91;5039551;28;45400;-79
2023/10/28 00:19:50;;;;;;;;;4.00;1.00;;;;;12.27;75.92;99134.31;5052376;28;47204;-79
2023/10/28 00:22:19;;;;;;;;;2.33;1.00;;;;;12.47;75.57;99164.31;5037948;28;45381;-79
2023/10/28 00:24:45;;;;;;;;;8.33;3.33;;;;;12.35;75.59;99143.72;5042306;28;45414;-78
2023/10/28 00:27:12;;;;;;;;;2.67;2.33;;;;;12.85;75.63;99230.56;5043720;28;45505;-79
2023/10/28 00:29:37;;;;;;;;;5.00;2.33;;;;;13.05;75.71;99246.59;5046616;28;46141;-78
2023/10/28 00:32:05;;;;;;;;;2.00;2.00;;;;;12.49;75.65;99149.38;5044939;28;45206;-79
2023/10/28 00:34:32;;;;;;;;;6.33;2.67;;;;;12.60;75.54;99176.19;5056709;28;45474;-78
2023/10/28 00:36:59;;;;;;;;;2.00;2.00;;;;;12.34;75.58;99140.22;5041290;28;45562;-78
2023/10/28 00:39:24;;;;;;;;;3.67;1.00;;;;;12.90;75.47;99208.50;5040758;28;45564;-78
2023/10/28 00:41:50;;;;;;;;;4.00;2.67;;;;;12.52;75.71;99159.78;5040005;28;45380;-79
2023/10/28 00:44:16;;;;;;;;;2.00;1.67;;;;;12.68;75.22;99184.66;5039855;28;45642;-78
2023/10/28 00:46:42;;;;;;;;;7.67;2.33;;;;;13.02;76.14;99223.00;5039831;28;45464;-78
2023/10/28 00:49:09;;;;;;;;;6.67;2.67;;;;;12.98;76.73;99239.81;5052052;28;46424;-78
2023/10/28 00:51:35;;;;;;;;;3.00;1.00;;;;;12.50;76.99;99158.97;5051291;28;44784;-78
2023/10/28 00:54:01;;;;;;;;;5.00;2.00;;;;;12.65;77.15;99187.41;5040721;28;45602;-78
2023/10/28 00:56:28;;;;;;;;;4.33;2.00;;;;;12.76;77.28;99196.72;5040896;28;45501;-76
2023/10/28 00:58:57;;;;;;;;;4.33;2.33;;;;;13.02;76.99;99232.66;5041510;28;46244;-79
2023/10/28 01:01:23;;;;;;;;;5.00;2.33;;;;;13.00;77.05;99232.69;5041621;28;45515;-79
2023/10/28 01:03:48;;;;;;;;;3.33;3.00;;;;;12.63;76.95;99178.72;5026067;28;45496;-78
2023/10/28 01:06:15;;;;;;;;;3.33;2.67;;;;;12.72;76.75;99188.94;5041443;28;45373;-78
2023/10/28 01:08:40;;;;;;;;;5.67;2.00;;;;;12.57;76.86;99163.13;5039839;28;46250;-79
2023/10/28 01:11:06;;;;;;;;;4.33;1.00;;;;;12.68;77.25;99178.56;5052237;28;45429;-79
2023/10/28 01:13:32;;;;;;;;;2.00;2.00;;;;;12.32;77.34;99130.69;5054976;28;45438;-77
2023/10/28 01:15:59;;;;;;;;;4.33;2.00;;;;;12.77;77.89;99201.06;5054838;28;45520;-78
2023/10/28 01:18:25;;;;;;;;;8.00;1.67;;;;;12.93;78.13;99218.94;5037732;28;45606;-78
2023/10/28 01:20:51;;;;;;;;;2.00;2.00;;;;;12.72;78.09;99174.94;5039246;28;45390;-79
2023/10/28 01:23:16;;;;;;;;;6.33;2.00;;;;;12.79;77.76;99191.34;5036636;28;45231;-80
2023/10/28 01:25:42;;;;;;;;;4.67;1.67;;;;;12.45;78.12;99121.50;5025434;28;45329;-78
2023/10/28 01:28:11;;;;;;;;;1.33;1.00;;;;;12.46;78.01;99124.09;5025141;28;45553;-78
2023/10/28 01:30:37;;;;;;;;;3.00;1.00;;;;;12.53;77.93;99132.63;5038960;28;45342;-78
2023/10/28 01:33:03;;;;;;;;;4.33;2.00;;;;;13.02;77.89;99203.75;5039805;28;45434;-77
2023/10/28 01:35:29;;;;;;;;;2.00;2.00;;;;;12.86;77.38;99182.34;5032899;28;45428;-79
2023/10/28 01:37:54;;;;;;;;;2.00;1.00;;;;;12.43;76.88;99092.69;5033274;28;46027;-78
2023/10/28 01:40:20;;;;;;;;;3.33;2.00;;;;;12.41;77.48;99085.72;5038786;28;45508;-78
2023/10/28 01:42:46;;;;;;;;;3.00;1.33;;;;;12.38;77.02;99094.56;5039581;28;45946;-78
2023/10/28 01:45:12;;;;;;;;;3.00;1.00;;;;;12.89;77.91;99184.91;5039440;28;45243;-79
2023/10/28 01:47:42;;;;;;;;;1.00;0.67;;;;;12.74;78.07;99165.22;5039173;28;45959;-78
2023/10/28 01:50:11;;;;;;;;;3.67;2.33;;;;;12.98;78.33;99205.63;5039504;28;45774;-79
2023/10/28 01:52:37;;;;;;;;;4.67;1.67;;;;;12.78;77.98;99161.59;5039669;28;45534;-77
2023/10/28 01:55:02;;;;;;;;;1.67;1.67;;;;;12.37;78.24;99094.63;5041452;28;45515;-78
2023/10/28 01:57:28;;;;;;;;;2.00;2.00;;;;;13.00;78.02;99201.16;5041436;28;46289;-77
2023/10/28 01:59:54;;;;;;;;;2.67;1.00;;;;;12.58;77.65;99125.47;5039425;28;45317;-79
2023/10/28 02:02:19;;;;;;;;;4.67;2.00;;;;;13.07;77.96;99200.06;5051619;28;45439;-79
2023/10/28 02:04:45;;;;;;;;;1.00;1.00;;;;;12.41;77.58;99105.00;5030059;28;45476;-77
2023/10/28 02:07:11;;;;;;;;;2.00;1.00;;;;;12.65;77.11;99121.72;5038860;28;45512;-79
2023/10/28 02:09:36;;;;;;;;;5.00;1.67;;;;;12.27;77.46;99066.03;5039430;28;45523;-78
2023/10/28 02:12:02;;;;;;;;;3.33;1.00;;;;;13.01;77.33;99191.53;5040010;28;45476;-79
2023/10/28 02:14:28;;;;;;;;;4.00;2.00;;;;;12.55;76.97;99098.44;5040522;28;45443;-79
2023/10/28 02:16:55;;;;;;;;;6.00;2.33;;;;;12.55;77.41;99103.69;5039814;28;45408;-78
2023/10/28 02:19:21;;;;;;;;;2.33;1.33;;;;;12.38;76.98;99085.84;5037287;28;45318;-77
2023/10/28 02:21:50;;;;;;;;;2.00;0.33;;;;;12.40;77.07;99079.63;5037779;28;45456;-78
2023/10/28 02:24:17;;;;;;;;;2.00;0.67;;;;;12.71;77.00;99126.78;5038739;28;45429;-79
2023/10/28 02:26:43;;;;;;;;;1.67;1.67;;;;;13.04;77.72;99187.03;5030145;28;45670;-77
2023/10/28 02:29:09;;;;;;;;;3.00;2.00;;;;;12.81;77.39;99144.88;5033494;28;45984;-78
2023/10/28 02:31:35;;;;;;;;;1.67;1.00;;;;;12.38;77.26;99067.47;5038249;28;45275;-77
2023/10/28 02:34:00;;;;;;;;;3.00;3.00;;;;;12.28;77.59;99056.41;5039155;28;45342;-77
2023/10/28 02:36:26;;;;;;;;;5.67;1.00;;;;;13.02;77.73;99185.34;5038125;28;45530;-78
2023/10/28 02:38:52;;;;;;;;;0.00;0.00;;;;;13.03;77.83;99179.22;5039260;28;45318;-77
2023/10/28 02:41:17;;;;;;;;;5.00;2.00;;;;;12.29;77.71;99059.00;5038043;28;45497;-77
2023/10/28 02:43:43;;;;;;;;;2.33;1.00;;;;;12.76;77.71;99126.63;5038607;28;45219;-78
2023/10/28 02:46:09;;;;;;;;;2.00;1.67;;;;;13.03;78.05;99161.66;5037631;28;45906;-78
2023/10/28 02:48:35;;;;;;;;;1.33;1.33;;;;;13.05;77.87;99164.22;5038467;28;45314;-78
2023/10/28 02:51:07;;;;;;;;;2.33;1.67;;;;;12.39;77.66;99064.81;5039458;28;45473;-78
2023/10/28 02:53:33;;;;;;;;;2.67;1.33;;;;;12.69;77.90;99115.47;5039727;28;45318;-77
2023/10/28 02:56:03;;;;;;;;;3.00;1.33;;;;;13.06;78.00;99166.81;5038001;28;46616;-77
2023/10/28 02:58:29;;;;;;;;;2.00;1.00;;;;;13.09;77.88;99157.97;5041669;28;45637;-78
2023/10/28 03:00:57;;;;;;;;;1.67;1.00;;;;;12.69;77.96;99089.22;5041125;28;45535;-79
2023/10/28 03:03:23;;;;;;;;;4.00;1.00;;;;;13.13;78.02;99155.19;5039553;28;45411;-77
2023/10/28 03:05:50;;;;;;;;;3.67;2.00;;;;;12.62;77.37;99050.03;5038145;28;46406;-77
2023/10/28 03:08:16;;;;;;;;;6.67;1.00;;;;;12.73;77.33;99079.44;5037619;28;45761;-77
2023/10/28 03:10:42;;;;;;;;;1.67;1.00;;;;;13.08;77.71;99146.59;5036557;28;45523;-78
2023/10/28 03:13:07;;;;;;;;;5.00;1.67;;;;;12.86;77.49;99117.56;5038904;28;45577;-77
2023/10/28 03:15:33;;;;;;;;;1.00;1.00;;;;;12.41;77.60;99044.59;5037518;28;46540;-78
2023/10/28 03:17:59;;;;;;;;;2.33;2.00;;;;;13.05;77.26;99157.22;5037705;28;45400;-77
2023/10/28 03:20:25;;;;;;;;;3.00;1.00;;;;;12.23;77.58;99050.44;5053476;28;45468;-77
2023/10/28 03:22:51;;;;;;;;;1.00;1.00;;;;;12.83;77.43;99137.81;5037173;28;45466;-79
2023/10/28 03:25:16;;;;;;;;;1.67;1.67;;;;;13.07;77.39;99186.06;5049776;28;47005;-79
2023/10/28 03:27:42;;;;;;;;;2.00;1.00;;;;;13.07;77.05;99189.53;5023106;28;45252;-78
2023/10/28 03:30:08;;;;;;;;;0.00;0.00;;;;;12.99;76.97;99181.06;5039234;28;45397;-78
2023/10/28 03:32:35;;;;;;;;;3.00;1.33;;;;;12.94;77.24;99175.97;5040652;28;45341;-77
2023/10/28 03:35:01;;;;;;;;;3.00;2.00;;;;;12.60;77.23;99120.16;5040762;28;45449;-78
2023/10/28 03:37:26;;;;;;;;;2.33;1.33;;;;;12.32;77.36;99093.94;5041060;28;45324;-78
2023/10/28 03:39:52;;;;;;;;;1.67;0.00;;;;;12.63;77.21;99141.09;5044163;28;45351;-77
2023/10/28 03:42:19;;;;;;;;;1.00;1.00;;;;;12.88;77.20;99175.28;5048609;28;45777;-76
2023/10/28 03:44:44;;;;;;;;;1.00;1.00;;;;;12.89;77.02;99170.00;5044784;28;45457;-77
2023/10/28 03:47:11;;;;;;;;;0.00;0.00;;;;;12.03;77.04;99030.94;5043795;28;45458;-78
2023/10/28 03:49:37;;;;;;;;;3.00;1.33;;;;;12.81;76.64;99168.50;5038989;28;45316;-77
2023/10/28 03:52:02;;;;;;;;;0.33;0.33;;;;;12.28;77.06;99099.25;5037961;28;45410;-77
2023/10/28 03:54:29;;;;;;;;;1.67;0.00;;;;;12.25;77.29;99083.59;5037923;28;45469;-76
2023/10/28 03:56:55;;;;;;;;;0.67;0.67;;;;;12.20;77.07;99096.03;5038746;28;45378;-77
2023/10/28 03:59:21;;;;;;;;;2.67;2.00;;;;;12.75;77.09;99160.84;5046867;28;45333;-76
2023/10/28 04:01:47;;;;;;;;;3.67;1.00;;;;;12.85;76.92;99184.13;5066096;28;45382;-77
2023/10/28 04:04:12;;;;;;;;;3.33;2.00;;;;;12.17;76.98;99090.88;5052052;28;45403;-78
2023/10/28 04:06:38;;;;;;;;;5.33;1.00;;;;;12.89;77.38;99195.41;5049792;28;45392;-75
2023/10/28 04:09:04;;;;;;;;;1.33;1.00;;;;;12.89;77.38;99208.56;5044231;28;45524;-78
2023/10/28 04:11:29;;;;;;;;;0.33;0.33;;;;;12.88;77.12;99218.22;5041946;28;45437;-76
2023/10/28 04:13:55;;;;;;;;;1.00;1.00;;;;;12.25;77.08;99101.97;5040633;28;46514;-77
2023/10/28 04:16:21;;;;;;;;;4.00;1.00;;;;;12.23;77.07;99097.69;5039883;28;45476;-78
2023/10/28 04:18:48;;;;;;;;;3.00;2.00;;;;;12.47;77.02;99140.69;5056625;28;45466;-78
2023/10/28 04:21:14;;;;;;;;;3.67;1.00;;;;;12.83;77.50;99204.34;5040478;28;45398;-77
2023/10/28 04:23:39;;;;;;;;;3.00;1.33;;;;;12.11;77.44;99084.94;5041714;28;45497;-78
2023/10/28 04:26:05;;;;;;;;;2.67;2.00;;;;;12.05;77.04;99089.47;5041733;28;45284;-78
2023/10/28 04:28:31;;;;;;;;;1.33;0.67;;;;;12.76;77.19;99194.06;5051416;28;45451;-78
2023/10/28 04:30:58;;;;;;;;;0.33;0.00;;;;;12.94;76.93;99217.16;5039915;28;45433;-79
2023/10/28 04:33:24;;;;;;;;;1.33;0.33;;;;;12.61;77.25;99156.03;5039591;28;45405;-80
2023/10/28 04:35:53;;;;;;;;;3.00;2.00;;;;;13.02;76.96;99222.16;5039877;28;45428;-78
2023/10/28 04:38:22;;;;;;;;;1.00;1.00;;;;;12.37;76.72;99121.75;5039509;28;45547;-79
2023/10/28 04:40:50;;;;;;;;;2.00;2.00;;;;;13.04;76.99;99209.81;5040750;28;45492;-78
2023/10/28 04:43:15;;;;;;;;;0.67;0.00;;;;;12.48;76.66;99139.78;5055248;28;46963;-79
2023/10/28 04:45:42;;;;;;;;;2.00;1.33;;;;;13.02;76.54;99215.13;5040236;28;45456;-77
2023/10/28 04:48:10;;;;;;;;;1.00;1.00;;;;;12.31;76.56;99098.28;5040506;28;45531;-78
2023/10/28 04:50:35;;;;;;;;;4.33;1.33;;;;;12.26;76.24;99113.34;5035463;28;45530;-78
2023/10/28 04:53:01;;;;;;;;;2.33;1.00;;;;;12.73;77.04;99188.00;5034584;28;46841;-80
2023/10/28 04:55:27;;;;;;;;;3.00;1.67;;;;;12.61;76.79;99156.03;5041371;28;45381;-79
2023/10/28 04:57:52;;;;;;;;;5.67;1.00;;;;;12.67;77.15;99175.09;5042397;28;45534;-79
2023/10/28 05:00:19;;;;;;;;;2.00;1.33;;;;;12.66;76.93;99175.97;5042537;28;45483;-78
2023/10/28 05:02:45;;;;;;;;;4.00;1.00;;;;;12.19;77.22;99096.91;5043033;28;45601;-78
2023/10/28 05:05:13;;;;;;;;;4.33;1.00;;;;;12.92;77.02;99216.34;5041896;28;45452;-78
2023/10/28 05:07:39;;;;;;;;;3.00;2.00;;;;;12.83;76.60;99203.47;5040215;28;45311;-78
2023/10/28 05:10:05;;;;;;;;;1.33;1.00;;;;;12.36;76.81;99120.00;5038956;28;45290;-79
2023/10/28 05:12:32;;;;;;;;;5.00;1.00;;;;;13.01;76.65;99234.44;5039908;28;46100;-77
2023/10/28 05:14:59;;;;;;;;;1.00;1.00;;;;;12.87;76.81;99202.50;5039252;28;45493;-77
2023/10/28 05:17:25;;;;;;;;;1.00;1.00;;;;;12.99;76.16;99222.25;5038967;28;45421;-77
2023/10/28 05:19:51;;;;;;;;;7.67;1.00;;;;;12.89;76.57;99195.41;5027866;28;45325;-77
2023/10/28 05:22:18;;;;;;;;;0.00;0.00;;;;;12.47;76.04;99124.94;5048151;28;46645;-75
2023/10/28 05:24:45;;;;;;;;;3.33;1.33;;;;;12.89;75.98;99196.28;5028892;28;45431;-76
2023/10/28 05:27:10;;;;;;;;;1.00;1.00;;;;;13.10;75.93;99228.91;5043385;28;45501;-77
2023/10/28 05:29:36;;;;;;;;;1.33;1.00;;;;;12.92;76.18;99195.31;5038130;28;45471;-78
2023/10/28 05:32:02;;;;;;;;;2.00;1.00;;;;;13.05;76.09;99228.19;5037813;28;48194;-79
2023/10/28 05:34:27;;;;;;;;;2.00;1.00;;;;;12.47;76.42;99141.53;5038548;28;45401;-77
2023/10/28 05:36:53;;;;;;;;;3.33;1.00;;;;;12.29;76.44;99115.84;5039099;28;45436;-78
2023/10/28 05:39:20;;;;;;;;;2.00;2.00;;;;;12.97;75.97;99222.28;5039392;28;45656;-77
2023/10/28 05:41:47;;;;;;;;;2.33;1.00;;;;;12.70;76.31;99174.97;5039094;28;46171;-77
2023/10/28 05:44:14;;;;;;;;;1.67;1.67;;;;;13.10;76.30;99235.94;5035360;28;45527;-76
2023/10/28 05:46:44;;;;;;;;;5.00;3.00;;;;;13.14;76.34;99237.53;5037714;28;45577;-77
2023/10/28 05:49:12;;;;;;;;;4.33;2.00;;;;;12.62;76.21;99162.97;5050620;28;45531;-79
2023/10/28 05:51:38;;;;;;;;;1.00;0.33;;;;;11.77;76.33;99052.69;5053780;27;46899;-77
2023/10/28 05:54:04;;;;;;;;;4.67;1.67;;;;;13.09;76.46;99256.06;5039558;28;45739;-79
2023/10/28 05:56:30;;;;;;;;;2.33;2.00;;;;;12.97;76.73;99224.06;5040964;28;45297;-78
2023/10/28 05:58:58;;;;;;;;;2.67;1.33;;;;;13.04;76.06;99259.75;5040293;28;45829;-79
2023/10/28 06:01:26;;;;;;;;;2.67;1.67;;;;;12.94;76.97;99261.81;5041903;28;46376;-79
2023/10/28 06:03:52;;;;;;;;;7.67;1.00;;;;;12.52;77.09;99186.91;5039113;28;45428;-78
2023/10/28 06:06:18;;;;;;;;;5.33;1.00;;;;;12.37;77.18;99176.88;5032080;28;45450;-78
2023/10/28 06:08:43;;;;;;;;;2.00;2.00;;;;;12.32;77.29;99154.31;5041033;28;45473;-80
2023/10/28 06:11:09;;;;;;;;;2.00;2.00;;;;;12.93;76.81;99255.72;5055020;28;47673;-80
2023/10/28 06:13:38;;;;;;;;;4.33;2.00;;;;;12.29;77.06;99145.63;5037457;28;45537;-80
2023/10/28 06:16:03;;;;;;;;;6.00;2.67;;;;;12.33;76.77;99148.13;5039684;28;45517;-80
2023/10/28 06:18:29;;;;;;;;;4.00;1.00;;;;;12.99;76.50;99261.69;5034180;28;45508;-81
2023/10/28 06:20:55;;;;;;;;;3.67;1.33;;;;;12.92;77.22;99251.34;5039822;28;46207;-80
2023/10/28 06:23:21;;;;;;;;;2.00;1.67;;;;;12.64;76.56;99217.19;5038387;28;45489;-80
2023/10/28 06:25:47;;;;;;;;;3.67;1.00;;;;;12.87;76.50;99245.38;5038200;28;45361;-80
2023/10/28 06:28:12;;;;;;;;;6.33;1.33;;;;;12.52;76.53;99197.41;5025068;28;45433;-81
2023/10/28 06:30:51;;;;;;;;;6.67;3.00;;;;;12.61;76.73;99198.91;5037579;28;47644;-82
2023/10/28 06:33:17;;;;;;;;;2.00;2.00;;;;;12.76;76.92;99223.81;5039570;28;45374;-83
2023/10/28 06:35:43;;;;;;;;;4.00;1.00;;;;;12.85;77.01;99246.34;5040514;28;45529;-80
2023/10/28 06:38:09;;;;;;;;;2.00;2.00;;;;;13.04;76.32;99268.50;5038657;28;45493;-81
2023/10/28 06:40:39;;;;;;;;;2.00;1.67;;;;;12.54;76.65;99172.88;5040739;28;45536;-75
2023/10/28 06:43:05;;;;;;;;;1.00;1.00;;;;;12.61;76.52;99191.03;5042950;28;45220;-80
2023/10/28 06:45:31;;;;;;;;;2.67;1.00;;;;;12.39;75.78;99164.56;5045443;28;45390;-81
2023/10/28 06:48:01;;;;;;;;;5.67;1.33;;;;;12.43;75.77;99162.69;5044038;28;45636;-79
2023/10/28 06:50:27;;;;;;;;;2.67;1.00;;;;;13.13;75.99;99281.34;5040942;28;46975;-78
2023/10/28 06:52:54;;;;;;;;;2.67;2.67;;;;;12.65;75.66;99205.78;5045347;28;45342;-81
2023/10/28 06:55:20;;;;;;;;;3.67;2.00;;;;;13.14;75.84;99280.47;5050984;28;45401;-80
2023/10/28 06:57:45;;;;;;;;;1.33;1.00;;;;;13.13;75.78;99283.97;5052600;28;45440;-77
2023/10/28 07:00:16;;;;;;;;;4.33;3.00;;;;;12.52;75.96;99186.91;5037542;28;45259;-80
2023/10/28 07:02:44;;;;;;;;;6.00;2.00;;;;;12.99;76.10;99278.31;5042028;28;45360;-76
2023/10/28 07:05:10;;;;;;;;;1.33;1.00;;;;;12.74;76.57;99238.78;5040425;28;45449;-80
2023/10/28 07:07:37;;;;;;;;;1.00;0.00;;;;;12.91;76.45;99275.06;5038369;28;45651;-77
2023/10/28 07:10:05;;;;;;;;;3.00;2.00;;;;;12.98;77.12;99280.97;5038830;28;46042;-79
2023/10/28 07:12:31;;;;;;;;;4.67;0.67;;;;;12.99;76.68;99320.34;5039861;28;45389;-79
2023/10/28 07:14:57;;;;;;;;;3.00;3.00;;;;;12.92;76.70;99287.28;5042206;28;45563;-78
2023/10/28 07:17:25;;;;;;;;;4.00;2.00;;;;;12.25;77.33;99206.13;5039802;28;45425;-82
2023/10/28 07:19:55;;;;;;;;;3.33;2.67;;;;;12.93;77.59;99291.63;5040200;28;45289;-83
2023/10/28 07:22:20;;;;;;;;;2.00;2.00;;;;;12.80;77.50;99299.03;5038478;28;45501;-81
2023/10/28 07:24:47;;;;;;;;;6.67;2.00;;;;;12.91;77.76;99310.09;5040461;28;45325;-81
2023/10/28 07:27:12;;;;;;;;;2.00;1.00;;;;;12.90;77.44;99300.47;5028203;28;45444;-83
2023/10/28 07:29:39;;;;;;;;;2.00;1.33;;;;;13.00;77.57;99308.06;5039096;28;45430;-81
2023/10/28 07:32:06;;;;;;;;;3.33;1.00;;;;;12.30;78.30;99212.94;5052881;28;45451;-79
2023/10/28 07:34:32;;;;;;;;;1.67;1.00;;;;;12.53;77.78;99237.69;5040347;28;45657;-82
2023/10/28 07:37:03;;;;;;;;;3.00;2.00;;;;;12.98;77.42;99318.66;5061628;28;45413;-83
2023/10/28 07:39:30;;;;;;;;;6.00;1.67;;;;;12.48;77.40;99244.81;5041578;28;45543;-83
2023/10/28 07:41:56;;;;;;;;;5.67;2.00;;;;;12.61;77.57;99263.72;5032186;28;45467;-79
2023/10/28 07:44:21;;;;;;;;;2.00;2.00;;;;;12.81;77.65;99297.25;5045825;28;45427;-76
2023/10/28 07:46:47;;;;;;;;;2.67;1.67;;;;;12.85;77.12;99305.00;5045035;28;45421;-82
2023/10/28 07:49:13;;;;;;;;;5.00;2.00;;;;;13.14;77.28;99330.41;5044154;28;45592;-82
2023/10/28 07:51:39;;;;;;;;;5.33;2.00;;;;;12.97;76.79;99309.03;5044595;28;45441;-82
2023/10/28 07:54:06;;;;;;;;;2.33;1.00;;;;;12.54;76.99;99239.38;5060915;28;45283;-82
2023/10/28 07:56:32;;;;;;;;;3.00;2.33;;;;;12.39;76.73;99216.22;5046891;28;45315;-80
2023/10/28 07:59:01;;;;;;;;;3.00;2.00;;;;;12.86;77.22;99303.22;5041719;28;46832;-82
2023/10/28 08:01:27;;;;;;;;;4.67;4.00;;;;;13.24;77.38;99356.41;5039503;28;45363;-82
2023/10/28 08:03:53;;;;;;;;;2.00;2.00;;;;;13.23;77.03;99367.84;5043447;28;45322;-81
2023/10/28 08:06:22;;;;;;;;;3.00;1.67;;;;;12.50;77.30;99236.00;5042050;28;45536;-81
2023/10/28 08:08:48;;;;;;;;;5.00;2.00;;;;;12.60;76.88;99251.47;5041691;28;46264;-82
2023/10/28 08:11:16;;;;;;;;;3.33;2.00;;;;;13.23;77.11;99346.78;5041650;28;45452;-81
2023/10/28 08:13:42;;;;;;;;;2.67;2.33;;;;;13.25;77.01;99350.25;5042667;28;45507;-83
2023/10/28 08:16:09;;;;;;;;;4.00;1.33;;;;;13.25;77.04;99351.09;5040124;28;45473;-81
2023/10/28 08:18:38;;;;;;;;;2.00;1.00;;;;;12.58;77.22;99256.78;5041177;28;46389;-81
2023/10/28 08:21:04;;;;;;;;;1.00;1.00;;;;;13.34;77.16;99344.72;5038808;28;45807;-81
2023/10/28 08:23:30;;;;;;;;;1.00;1.00;;;;;13.31;76.92;99350.94;5053670;28;45450;-81
2023/10/28 08:25:57;;;;;;;;;2.33;1.33;;;;;13.09;77.22;99329.66;5041136;28;45633;-82
2023/10/28 08:28:23;;;;;;;;;2.00;2.00;;;;;13.15;76.85;99326.88;5030653;28;46346;-82
2023/10/28 08:30:48;;;;;;;;;3.67;2.67;;;;;12.90;77.29;99292.56;5040991;28;45494;-81
2023/10/28 08:33:14;;;;;;;;;3.00;1.00;;;;;12.82;77.30;99273.56;5040843;28;45357;-82
2023/10/28 08:35:39;;;;;;;;;1.67;1.00;;;;;12.91;76.86;99309.22;5041140;28;45391;-83
2023/10/28 08:38:05;;;;;;;;;0.67;0.00;;;;;12.84;77.46;99294.56;5043231;28;45440;-81
2023/10/28 08:40:31;;;;;;;;;1.00;1.00;;;;;13.32;76.93;99350.03;5055476;28;45296;-81
2023/10/28 08:42:58;;;;;;;;;3.33;2.67;;;;;13.21;77.46;99320.53;5038382;28;45477;-79
2023/10/28 08:45:26;;;;;;;;;3.00;2.00;;;;;13.25;77.13;99330.06;5032719;28;45245;-79
2023/10/28 08:47:53;;;;;;;;;4.00;2.00;;;;;12.86;76.61;99248.03;5038177;28;46231;-79
2023/10/28 08:50:24;;;;;;;;;4.67;3.00;;;;;13.47;76.44;99330.25;5043713;28;45409;-79
2023/10/28 08:52:55;;;;;;;;;3.00;2.00;;;;;13.27;76.71;99293.22;5042482;28;45485;-83
2023/10/28 08:55:23;;;;;;;;;3.00;1.33;;;;;12.94;76.53;99244.28;5063170;28;45427;-83
2023/10/28 08:57:49;;;;;;;;;3.00;2.00;;;;;13.53;76.36;99331.84;5046726;28;45712;-80
2023/10/28 09:00:16;;;;;;;;;2.33;2.00;;;;;13.52;76.14;99320.44;5043603;28;45290;-84
2023/10/28 09:02:49;;;;;;;;;1.00;1.00;;;;;13.21;76.03;99260.06;5044755;28;45419;-83
2023/10/28 09:05:16;;;;;;;;;0.00;0.00;;;;;13.02;76.02;99228.25;5044744;28;45428;-83
2023/10/28 09:07:51;;;;;;;;;4.00;1.00;;;;;13.52;76.30;99311.72;5042737;28;46066;-79
2023/10/28 09:10:17;;;;;;;;;2.67;1.67;;;;;12.82;76.57;99196.53;5038906;28;45333;-77
2023/10/28 09:12:44;;;;;;;;;3.67;3.00;;;;;12.86;75.96;99188.50;5035264;28;45473;-78
2023/10/28 09:15:11;;;;;;;;;5.33;2.67;;;;;13.57;76.20;99301.88;5043639;28;45491;-77
2023/10/28 09:17:41;;;;;;;;;1.00;1.00;;;;;13.48;76.06;99289.91;5044468;28;47097;-78
2023/10/28 09:20:11;;;;;;;;;2.00;1.67;;;;;13.65;75.91;99305.13;5043806;28;45276;-80
2023/10/28 09:22:40;;;;;;;;;1.00;1.00;;;;;13.69;75.40;99316.41;5029308;28;45364;-81
2023/10/28 09:25:09;;;;;;;;;2.00;1.00;;;;;13.61;76.01;99294.78;5043152;28;45309;-77
2023/10/28 09:27:35;;;;;;;;;0.67;0.67;;;;;13.67;75.54;99302.47;5030837;28;45560;-80
2023/10/28 09:30:10;;;;;;;;;3.00;1.00;;;;;13.72;75.45;99311.06;5046568;28;45515;-77
2023/10/28 09:32:37;;;;;;;;;1.67;0.33;;;;;13.68;75.75;99301.53;5049216;28;45148;-78
2023/10/28 09:35:05;;;;;;;;;1.33;1.00;;;;;13.18;75.13;99244.41;5046407;28;45561;-79
2023/10/28 09:37:34;;;;;;;;;2.00;1.00;;;;;13.51;75.18;99276.66;5033667;28;45813;-83
2023/10/28 09:40:02;;;;;;;;;3.00;0.33;;;;;13.24;75.18;99206.53;5048460;28;45514;-81
2023/10/28 09:42:31;;;;;;;;;2.67;1.67;;;;;13.67;74.62;99252.47;5047927;28;45440;-81
2023/10/28 09:45:05;;;;;;;;;1.67;1.00;;;;;13.26;74.52;99192.41;5044441;28;45371;-81
2023/10/28 09:47:57;;;;;;;;;2.00;2.00;;;;;13.93;74.44;99296.31;5047972;28;45545;-78
2023/10/28 09:50:25;;;;;;;;;1.00;1.00;;;;;13.83;74.18;99285.22;5026533;28;46199;-82
2023/10/28 09:52:56;;;;;;;;;0.33;0.00;;;;;13.41;74.24;99214.75;5022196;28;45334;-80
2023/10/28 09:55:36;;;;;;;;;2.00;1.00;;;;;13.75;74.80;99274.97;5031393;28;45472;-83
2023/10/28 09:58:56;;;;;;;;;3.00;1.33;;;;;13.86;74.71;99279.03;5046873;28;48055;-80
2023/10/28 10:01:40;;;;;;;;;1.00;1.00;;;;;13.64;74.67;99242.03;4991485;28;45713;-85
2023/10/28 10:04:23;;;;;;;;;1.00;1.00;;;;;13.87;74.61;99265.78;5031226;28;45494;-86
2023/10/28 10:06:49;;;;;;;;;1.00;1.00;;;;;13.94;74.90;99272.56;5030260;28;45483;-83
2023/10/28 10:09:18;;;;;;;;;1.67;1.00;;;;;14.02;74.15;99274.06;5034560;28;45443;-81
2023/10/28 10:11:45;;;;;;;;;2.00;1.00;;;;;14.03;73.60;99278.44;5032935;28;45441;-78
2023/10/28 10:14:12;;;;;;;;;2.00;1.00;;;;;13.66;73.81;99206.88;5052306;28;45408;-84
2023/10/28 10:17:02;;;;;;;;;2.00;0.33;;;;;13.91;73.41;99248.97;5065186;28;45458;-83
2023/10/28 10:19:35;;;;;;;;;1.00;1.00;;;;;14.02;73.37;99255.63;5029494;28;46444;-89
2023/10/28 10:22:08;;;;;;;;;2.33;1.00;;;;;12.99;73.37;99104.00;5055771;28;45491;-78
2023/10/28 10:24:34;;;;;;;;;3.33;2.00;;;;;13.25;73.11;99160.94;5020990;28;45432;-88
2023/10/28 10:27:01;;;;;;;;;2.67;1.33;;;;;14.12;72.83;99302.66;5026569;28;45342;-76
2023/10/28 10:29:29;;;;;;;;;2.33;2.33;;;;;13.62;74.63;99220.19;5037692;28;46252;-76
2023/10/28 10:31:56;;;;;;;;;11.67;8.67;;;;;14.38;72.54;99348.28;5054141;28;45484;-73
2023/10/28 10:34:39;;;;;;;;;3.00;3.00;;;;;14.40;72.39;99349.06;5038156;28;45422;-78
2023/10/28 10:37:06;;;;;;;;;1.00;1.00;;;;;14.27;72.58;99319.66;5039523;28;45369;-72
2023/10/28 10:39:46;;;;;;;;;1.00;1.00;;;;;14.15;71.86;99318.34;5039116;28;46629;-86
2023/10/28 10:42:15;;;;;;;;;1.00;1.00;;;;;13.79;71.60;99276.59;5041024;28;45310;-83
2023/10/28 10:44:41;;;;;;;;;2.00;1.00;;;;;14.28;71.48;99338.97;5041346;28;45432;-78
2023/10/28 10:47:09;;;;;;;;;3.00;2.00;;;;;13.41;71.63;99193.72;5039180;28;45414;-82
2023/10/28 10:49:38;;;;;;;;;4.67;1.33;;;;;14.04;71.60;99307.31;5040041;28;46222;-82
2023/10/28 10:52:04;;;;;;;;;1.00;1.00;;;;;14.17;72.05;99328.81;5025571;28;45440;-81
2023/10/28 10:54:33;;;;;;;;;2.00;2.00;;;;;14.04;71.42;99286.25;5041415;28;45308;-82
2023/10/28 10:57:00;;;;;;;;;1.67;1.67;;;;;14.32;71.18;99298.44;5025364;28;45585;-81
2023/10/28 10:59:33;;;;;;;;;3.33;1.00;;;;;14.26;70.83;99301.28;5029692;28;45442;-80
2023/10/28 11:02:00;;;;;;;;;3.00;0.00;;;;;14.24;70.74;99306.63;5038208;28;45543;-80
2023/10/28 11:04:31;;;;;;;;;0.33;0.33;;;;;13.65;70.84;99196.41;5029457;28;45468;-82
2023/10/28 11:06:58;;;;;;;;;1.00;1.00;;;;;14.09;70.79;99255.34;5048031;28;45590;-82
2023/10/28 11:09:27;;;;;;;;;2.33;1.00;;;;;13.89;70.47;99221.84;5019742;28;45474;-80
2023/10/28 11:11:53;;;;;;;;;0.33;0.33;;;;;13.74;70.56;99207.47;5019917;28;45425;-80
2023/10/28 11:14:19;;;;;;;;;3.00;1.33;;;;;14.40;70.12;99304.28;5024625;28;45489;-81
2023/10/28 11:16:45;;;;;;;;;2.00;1.00;;;;;13.79;70.17;99212.56;5025895;28;45350;-82
2023/10/28 11:19:11;;;;;;;;;1.00;1.00;;;;;14.00;70.06;99242.53;5020665;28;46490;-81
2023/10/28 11:21:39;;;;;;;;;3.33;1.00;;;;;13.90;69.33;99231.44;5018750;28;45373;-82
2023/10/28 11:24:07;;;;;;;;;3.00;1.00;;;;;13.96;70.00;99233.03;5020861;28;45428;-80
2023/10/28 11:26:34;;;;;;;;;3.00;1.00;;;;;14.17;69.57;99266.47;5031104;28;45457;-83
2023/10/28 11:29:00;;;;;;;;;3.67;1.67;;;;;14.20;69.48;99265.50;5029381;28;45311;-81
2023/10/28 11:31:31;;;;;;;;;1.00;1.00;;;;;14.01;69.25;99233.72;5038269;28;45577;-80
2023/10/28 11:33:58;;;;;;;;;2.00;1.33;;;;;13.90;69.51;99222.72;5038475;28;45865;-79